Nocc Pamplona — LALG5 — position and weather

sailwx.info

Track history (hours):
 
Tides and Currents Weather Stations Pressure Air Temp Water Temp Dewpoint Dewpoint Depression Visibility Wind Speed Wind Dir Waves Ship Positions

Nocc Pamplona

Last reported at 2015-Jul-31 12:33 UTC. Time now 2015-Aug-01 22:11 UTC.
Position N 04°08' E 099°49'.

Length 177 m; draft 7.1 m.

Type: Cargo ship. MMSI: 257349000.

Date/timePositionNaut miles runAvg speedWind from/ knotsBaromVisibWave heightAir tempDewpointWater temp
2015-Jul-31 12:33N 04°08' E 099°49'3517.4
2015-Jul-31 10:33N 03°42' E 100°12'3416.1
2015-Jul-31 08:25N 03°16' E 100°35'4415.3
2015-Jul-31 05:33N 02°46' E 101°07'6716.7
2015-Jul-31 01:31N 02°09' E 102°03'11316.1
2015-Jul-30 18:32N 01°11' E 103°39'1111.1
2015-Jul-30 17:33N 01°11' E 103°50'7 7.3
2015-Jul-30 16:33N 01°15' E 103°56'1 1.1
2015-Jul-30 15:31N 01°17' E 103°56'0 0.1
2015-Jul-30 14:25N 01°16' E 103°56'0 0.0
2015-Jul-30 13:31N 01°16' E 103°56'0 0.0
2015-Jul-30 12:31N 01°16' E 103°56'0 0.0
2015-Jul-30 11:25N 01°16' E 103°56'0 0.0
2015-Jul-30 10:28N 01°16' E 103°56'0 0.0
2015-Jul-30 09:22N 01°16' E 103°56'0 0.0
2015-Jul-30 08:31N 01°16' E 103°56'0 0.0
2015-Jul-30 06:27N 01°16' E 103°56'4 4.3
2015-Jul-30 05:33N 01°16' E 104°00'8 7.5
2015-Jul-30 04:29N 01°17' E 104°08'  
2015-Jul-25 16:19N 22°26' E 119°49'1114.1
2015-Jul-25 15:33N 22°37' E 119°52'1414.1
2015-Jul-25 14:33N 22°51' E 119°53'  
2015-Jul-22 12:27N 34°06' E 134°57'1314.5
2015-Jul-22 11:34N 34°19' E 134°59'1716.8
2015-Jul-22 10:34N 34°30' E 135°15'7 0.6
2015-Jul-21 23:33N 34°31' E 135°23'1010.1
2015-Jul-21 22:33N 34°28' E 135°12'1616.4
2015-Jul-21 21:33N 34°15' E 134°60'1111.0
2015-Jul-21 20:33N 34°04' E 134°59'1211.6
2015-Jul-21 19:30N 33°52' E 134°57'  
Track history (hours):
 
Tides and Currents Weather Stations Pressure Air Temp Water Temp Dewpoint Dewpoint Depression Visibility Wind Speed Wind Dir Waves Ship Positions

Nocc Pamplona

Last reported at 2015-Jul-31 12:33 UTC. Time now 2015-Aug-01 22:11 UTC.
Position N 04°08' E 099°49'.

Length 177 m; draft 7.1 m.

Type: Cargo ship. MMSI: 257349000.

Date/timePositionNaut miles runAvg speedWind from/ knotsBaromVisibWave heightAir tempDewpointWater temp
2015-Jul-31 12:33N 04°08' E 099°49'3517.4
2015-Jul-31 10:33N 03°42' E 100°12'3416.1
2015-Jul-31 08:25N 03°16' E 100°35'4415.3
2015-Jul-31 05:33N 02°46' E 101°07'6716.7
2015-Jul-31 01:31N 02°09' E 102°03'11316.1
2015-Jul-30 18:32N 01°11' E 103°39'1111.1
2015-Jul-30 17:33N 01°11' E 103°50'7 7.3
2015-Jul-30 16:33N 01°15' E 103°56'1 1.1
2015-Jul-30 15:31N 01°17' E 103°56'0 0.1
2015-Jul-30 14:25N 01°16' E 103°56'0 0.0
2015-Jul-30 13:31N 01°16' E 103°56'0 0.0
2015-Jul-30 12:31N 01°16' E 103°56'0 0.0
2015-Jul-30 11:25N 01°16' E 103°56'0 0.0
2015-Jul-30 10:28N 01°16' E 103°56'0 0.0
2015-Jul-30 09:22N 01°16' E 103°56'0 0.0
2015-Jul-30 08:31N 01°16' E 103°56'0 0.0
2015-Jul-30 06:27N 01°16' E 103°56'4 4.3
2015-Jul-30 05:33N 01°16' E 104°00'8 7.5
2015-Jul-30 04:29N 01°17' E 104°08'  
2015-Jul-25 16:19N 22°26' E 119°49'1114.1
2015-Jul-25 15:33N 22°37' E 119°52'1414.1
2015-Jul-25 14:33N 22°51' E 119°53'  
2015-Jul-22 12:27N 34°06' E 134°57'1314.5
2015-Jul-22 11:34N 34°19' E 134°59'1716.8
2015-Jul-22 10:34N 34°30' E 135°15'7 0.6
2015-Jul-21 23:33N 34°31' E 135°23'1010.1
2015-Jul-21 22:33N 34°28' E 135°12'1616.4
2015-Jul-21 21:33N 34°15' E 134°60'1111.0
2015-Jul-21 20:33N 34°04' E 134°59'1211.6
2015-Jul-21 19:30N 33°52' E 134°57'  

Dump ship's entire track history